Scott City, MO

3:30 PM CDT on September 17, 2014 (GMT -0500)
Cape Girardeau Regional | Change Station
CLOSE
Current Station
Airport
Location: Cape Girardeau,
Elevation: 341 ft
Nearby Weather Stations

Elev 341 ft 37.23 °N, 89.57 °W | Updated 37 minutes ago

Mostly Cloudy
Mostly Cloudy
65 °F
Feels Like 65 °F
N
5
Wind Variable Wind from SSE

Today
High -- | Low -- °F
--% Chance of Precip.
Yesterday
High -- | Low -- °F
Precip. -- in
6:42 AM 7:02 PM
Waning Crescent, 33% visible
Pressure 29.97 in
Visibility 10.0 miles
Clouds Mostly Cloudy 1600 ft
Dew Point 58 °F
Humidity 78%
Rainfall 0.03 in
Snow Depth Not available.
UV 3 out of 12
Pollen 7.30 out of 12
Air Quality Not available.
Flu Activity Not available.
METAR KCGI 171953Z 15004KT 10SM BKN016 18/14 A2997 RMK AO2 SLP147 T01830144

More Conditions Fewer Conditions

Pressure 29.97 in
Visibility 10.0 miles
Clouds Mostly Cloudy 1600 ft
Dew Point 58 °F
Humidity 78%
Rainfall 0.03 in
Snow Depth Not available.
UV 3 out of 12
Pollen 7.30 out of 12
Air Quality Not available.
Flu Activity Not available.
METAR KCGI 171953Z 15004KT 10SM BKN016 18/14 A2997 RMK AO2 SLP147 T01830144

More Conditions Fewer Conditions

10-Day Weather Forecast

Almanac

Astronomy

Sep. 17, 2014 Rise Set
Actual Time 6:42 AM CDT 7:02 PM CDT
Civil Twilight 6:15 AM CDT 7:28 PM CDT
Nautical Twilight 5:45 AM CDT 7:59 PM CDT
Astronomical Twilight 5:14 AM CDT 8:30 PM CDT
Moon 12:47 AM CDT 3:07 PM CDT
Length of Visible Light 13h 12m
Length of Day
12h 20m
Tomorrow will be 2m 21s shorter.
Waning Crescent, 33% of the Moon is Illuminated
Today
Waning Crescent
Sep 24
New
Oct 1
First Quarter
Oct 8
Full
Oct 15
Last Quarter

Today's Extremes

State Highs State Lows

Community

WunderPhotos

Upload Photos

1,754,157 photos uploaded!

Nearby

Snow Depth

Station Depth Elevation
No new snow has been reported.

Earthquake Activity

City Distance Mag. Time & Date
No recent earthquake activity has been reported nearby.
Minimum magnitude displayed is 2.5.

Coastal Water Temperatures

Place Temperature
No Stations Reporting

Nearby Weather Stations